createdAt,value
2022-10-14T00:01:10.441Z,78.80
2022-10-14T00:03:38.554Z,78.90
2022-10-14T00:06:12.259Z,79.10
2022-10-14T00:08:39.859Z,79.40
2022-10-14T00:11:12.726Z,79.50
2022-10-14T00:13:40.029Z,79.60
2022-10-14T00:16:14.361Z,79.70
2022-10-14T00:18:41.427Z,79.80
2022-10-14T00:21:08.800Z,79.90
2022-10-14T00:23:35.822Z,80.00
2022-10-14T00:26:02.911Z,80.00
2022-10-14T00:28:30.686Z,80.00
2022-10-14T00:31:01.121Z,80.10
2022-10-14T00:33:29.360Z,80.30
2022-10-14T00:36:04.613Z,80.50
2022-10-14T00:38:34.702Z,80.70
2022-10-14T00:41:02.137Z,80.90
2022-10-14T00:43:30.076Z,81.00
2022-10-14T00:45:57.058Z,81.00
2022-10-14T00:48:26.318Z,81.00
2022-10-14T00:50:57.388Z,81.00
2022-10-14T00:53:24.471Z,81.00
2022-10-14T00:55:53.106Z,81.00
2022-10-14T00:58:23.811Z,81.10
2022-10-14T01:00:50.971Z,81.10
2022-10-14T01:03:21.304Z,81.10
2022-10-14T01:06:09.235Z,81.10
2022-10-14T01:08:47.394Z,81.10
2022-10-14T01:11:29.364Z,81.00
2022-10-14T01:14:37.182Z,80.90
2022-10-14T01:17:21.929Z,81.00
2022-10-14T01:20:42.571Z,81.00
2022-10-14T01:23:18.292Z,81.40
2022-10-14T01:26:18.291Z,81.50
2022-10-14T01:28:51.631Z,81.80
2022-10-14T01:31:26.928Z,81.90
2022-10-14T01:33:58.385Z,82.00
2022-10-14T01:36:35.738Z,82.00
2022-10-14T01:39:02.674Z,82.10
2022-10-14T01:41:34.908Z,82.30
2022-10-14T01:44:10.183Z,82.50
2022-10-14T01:46:43.213Z,82.70
2022-10-14T01:49:15.867Z,82.80
2022-10-14T01:52:22.749Z,82.90
2022-10-14T01:54:53.497Z,83.00
2022-10-14T01:57:27.393Z,83.00
2022-10-14T01:59:56.081Z,83.20
2022-10-14T02:02:24.648Z,83.20
2022-10-14T02:04:52.298Z,83.30
2022-10-14T02:07:32.222Z,83.40
2022-10-14T02:10:08.816Z,83.50
2022-10-14T02:12:51.114Z,83.60
2022-10-14T02:15:38.561Z,83.60
2022-10-14T02:18:29.678Z,83.60
2022-10-14T02:21:20.659Z,83.70
2022-10-14T02:23:56.637Z,83.90
2022-10-14T02:26:26.479Z,84.00
2022-10-14T02:28:55.516Z,84.10
2022-10-14T02:31:25.056Z,84.20
2022-10-14T02:33:56.793Z,84.40
2022-10-14T02:36:25.761Z,84.50
2022-10-14T02:38:56.146Z,84.50
2022-10-14T02:41:27.734Z,84.60
2022-10-14T02:43:54.789Z,84.50
2022-10-14T02:46:22.784Z,84.40
2022-10-14T02:48:50.468Z,84.40
2022-10-14T02:51:17.737Z,84.40
2022-10-14T02:53:44.873Z,84.50
2022-10-14T02:56:15.777Z,84.60
2022-10-14T02:58:42.853Z,84.50
2022-10-14T03:01:10.286Z,84.40
2022-10-14T03:03:38.845Z,84.40
2022-10-14T03:06:06.053Z,84.40
2022-10-14T03:08:34.347Z,84.40
2022-10-14T03:11:02.150Z,84.40
2022-10-14T03:13:29.779Z,84.40
2022-10-14T03:15:56.930Z,84.30
2022-10-14T03:18:25.851Z,84.40
2022-10-14T03:20:58.623Z,85.10
2022-10-14T03:23:32.759Z,84.50
2022-10-14T03:25:59.753Z,84.70
2022-10-14T03:28:33.275Z,84.80
2022-10-14T03:31:23.509Z,84.80
2022-10-14T03:34:05.772Z,84.90
2022-10-14T03:36:34.547Z,85.10
2022-10-14T03:39:01.730Z,85.30
2022-10-14T03:41:36.816Z,85.40
2022-10-14T03:44:04.980Z,85.50
2022-10-14T03:46:33.307Z,85.60
2022-10-14T03:49:01.329Z,85.40
2022-10-14T03:51:28.386Z,85.30
2022-10-14T03:54:06.813Z,85.30
2022-10-14T03:56:33.949Z,85.30
2022-10-14T03:59:01.570Z,85.40
2022-10-14T04:01:28.640Z,85.30
2022-10-14T04:04:20.629Z,85.30
2022-10-14T04:06:47.796Z,85.80
2022-10-14T04:09:17.596Z,85.50
2022-10-14T04:11:44.745Z,85.50
2022-10-14T04:14:26.872Z,85.50
2022-10-14T04:16:53.894Z,85.40
2022-10-14T04:19:20.929Z,85.50
2022-10-14T04:21:49.031Z,85.50
2022-10-14T04:24:19.699Z,85.70
2022-10-14T04:26:52.556Z,85.80
2022-10-14T04:29:37.944Z,85.90
2022-10-14T04:32:12.326Z,86.10
2022-10-14T04:34:39.579Z,86.20
2022-10-14T04:37:08.289Z,86.30
2022-10-14T04:39:53.994Z,86.40
2022-10-14T04:42:22.184Z,86.40
2022-10-14T04:44:53.516Z,86.40
2022-10-14T04:47:27.077Z,86.50
2022-10-14T04:49:59.022Z,86.50
2022-10-14T04:52:28.137Z,86.60
2022-10-14T04:55:05.104Z,86.70
2022-10-14T04:57:40.505Z,86.90
2022-10-14T05:00:08.361Z,87.00
2022-10-14T05:02:44.313Z,87.70
2022-10-14T05:05:11.725Z,87.10
2022-10-14T05:07:42.824Z,87.30
2022-10-14T05:10:24.347Z,87.30
2022-10-14T05:12:52.084Z,87.40
2022-10-14T05:15:19.663Z,87.30
2022-10-14T05:17:58.711Z,87.30
2022-10-14T05:20:39.365Z,87.30
2022-10-14T05:23:07.104Z,87.20
2022-10-14T05:25:34.079Z,87.10
2022-10-14T05:28:01.326Z,87.20
2022-10-14T05:30:33.654Z,87.40
2022-10-14T05:33:03.471Z,87.50
2022-10-14T05:35:57.134Z,87.50
2022-10-14T05:38:17.711Z,87.50
2022-10-14T05:40:55.144Z,87.50
2022-10-14T05:43:29.273Z,87.60
2022-10-14T05:45:59.997Z,87.60
2022-10-14T05:48:33.914Z,87.50
2022-10-14T05:51:03.407Z,87.60
2022-10-14T05:53:33.058Z,87.70
2022-10-14T05:56:09.735Z,87.50
2022-10-14T05:58:39.389Z,87.50
2022-10-14T06:01:09.854Z,87.70
2022-10-14T06:03:40.117Z,87.80
2022-10-14T06:06:11.584Z,87.90
2022-10-14T06:08:38.942Z,88.00
2022-10-14T06:11:06.350Z,88.10
2022-10-14T06:13:34.107Z,88.20
2022-10-14T06:16:08.614Z,88.10
2022-10-14T06:18:36.566Z,88.10
2022-10-14T06:21:12.782Z,88.00
2022-10-14T06:23:39.845Z,88.00
2022-10-14T06:26:09.760Z,87.90
2022-10-14T06:28:38.063Z,87.90
2022-10-14T06:31:05.463Z,87.90
2022-10-14T06:33:32.478Z,87.90
2022-10-14T06:36:01.223Z,88.00
2022-10-14T06:38:28.243Z,88.00
2022-10-14T06:40:55.294Z,88.10
2022-10-14T06:43:22.757Z,88.10
2022-10-14T06:45:50.200Z,88.10
2022-10-14T06:48:17.151Z,88.10
2022-10-14T06:50:44.233Z,88.10
2022-10-14T06:53:11.254Z,88.00
2022-10-14T06:55:38.265Z,87.90
2022-10-14T06:58:05.233Z,87.90
2022-10-14T07:00:32.174Z,87.80
2022-10-14T07:02:59.658Z,87.60
2022-10-14T07:05:27.454Z,87.50
2022-10-14T07:07:54.468Z,87.30
2022-10-14T07:10:21.464Z,87.00
2022-10-14T07:12:48.663Z,86.60
2022-10-14T07:15:15.703Z,86.30
2022-10-14T07:17:42.766Z,85.90
2022-10-14T07:20:10.323Z,85.50
2022-10-14T07:22:38.757Z,85.10
2022-10-14T07:25:06.869Z,84.70
2022-10-14T07:27:34.121Z,84.30
2022-10-14T07:30:01.774Z,83.90
2022-10-14T07:32:28.976Z,83.60
2022-10-14T07:34:56.132Z,83.10
2022-10-14T07:37:24.019Z,82.70
2022-10-14T07:39:51.704Z,82.30
2022-10-14T07:42:21.777Z,81.70
2022-10-14T07:44:48.825Z,81.20
2022-10-14T07:47:16.628Z,80.60
2022-10-14T07:49:43.610Z,79.90
2022-10-14T07:52:10.617Z,79.30
2022-10-14T07:54:37.669Z,79.00
2022-10-14T07:57:04.678Z,78.70
2022-10-14T07:59:31.653Z,78.10
2022-10-14T08:01:59.186Z,77.40
2022-10-14T08:04:26.300Z,76.90
2022-10-14T08:06:53.375Z,76.60
2022-10-14T08:09:20.478Z,76.20
2022-10-14T08:11:48.072Z,75.80
2022-10-14T08:14:15.361Z,75.50
2022-10-14T08:16:42.309Z,74.80
2022-10-14T08:19:14.644Z,74.30
2022-10-14T08:21:43.414Z,74.00
2022-10-14T08:24:11.299Z,73.80
2022-10-14T08:26:40.849Z,73.50
2022-10-14T08:29:10.992Z,73.10
2022-10-14T08:31:38.529Z,72.90
2022-10-14T08:34:05.539Z,72.50
2022-10-14T08:36:32.563Z,72.10
2022-10-14T08:38:59.700Z,71.60
2022-10-14T08:41:39.172Z,71.10
2022-10-14T08:44:27.225Z,70.50
2022-10-14T08:46:54.124Z,70.20
2022-10-14T08:49:23.941Z,70.00
2022-10-14T08:52:03.376Z,69.80
2022-10-14T08:54:38.189Z,69.30
2022-10-14T08:57:06.431Z,69.10
2022-10-14T08:59:39.115Z,68.90
2022-10-14T09:02:14.939Z,68.70
2022-10-14T09:04:41.973Z,68.40
2022-10-14T09:07:16.854Z,67.90
2022-10-14T09:09:49.121Z,67.60
2022-10-14T09:12:29.650Z,67.30
2022-10-14T09:15:34.505Z,67.00
2022-10-14T09:18:01.682Z,66.70
2022-10-14T09:20:28.745Z,66.70
2022-10-14T09:23:04.961Z,66.50
2022-10-14T09:25:34.973Z,66.20
2022-10-14T09:28:02.249Z,65.90
2022-10-14T09:30:35.086Z,65.60
2022-10-14T09:33:03.617Z,64.90
2022-10-14T09:35:37.652Z,64.60
2022-10-14T09:38:05.204Z,64.90
2022-10-14T09:40:43.972Z,64.00
2022-10-14T09:43:10.942Z,63.30
2022-10-14T09:45:58.369Z,62.90
2022-10-14T09:48:37.809Z,62.50
2022-10-14T09:51:11.056Z,62.00
2022-10-14T09:53:52.514Z,61.70
2022-10-14T09:56:41.617Z,61.40
2022-10-14T09:59:20.346Z,61.40
2022-10-14T10:02:05.685Z,61.30
2022-10-14T10:04:36.858Z,60.20
2022-10-14T10:07:23.093Z,59.50
2022-10-14T10:09:56.099Z,59.60
2022-10-14T10:12:29.161Z,59.10
2022-10-14T10:14:58.749Z,59.30
2022-10-14T10:17:27.837Z,59.60
2022-10-14T10:20:28.595Z,60.00
2022-10-14T10:22:56.915Z,60.30
2022-10-14T10:25:28.502Z,59.40
2022-10-14T10:27:59.182Z,59.70
2022-10-14T10:30:27.388Z,59.60
2022-10-14T10:33:17.130Z,59.40
2022-10-14T10:36:06.855Z,58.60
2022-10-14T10:38:53.452Z,57.20
2022-10-14T10:41:58.612Z,57.10
2022-10-14T10:44:58.916Z,56.30
2022-10-14T10:47:33.413Z,55.80
2022-10-14T10:50:44.726Z,56.20
2022-10-14T10:53:14.738Z,57.00
2022-10-14T10:56:04.439Z,56.80
2022-10-14T10:58:46.753Z,56.30
2022-10-14T11:01:21.440Z,56.20
2022-10-14T11:04:03.524Z,56.50
2022-10-14T11:07:27.033Z,56.40
2022-10-14T11:10:28.546Z,55.80
2022-10-14T11:13:33.380Z,55.20
2022-10-14T11:16:08.080Z,54.10
2022-10-14T11:18:46.411Z,54.50
2022-10-14T11:21:29.849Z,54.90
2022-10-14T11:24:28.054Z,54.50
2022-10-14T11:27:03.674Z,54.50
2022-10-14T11:29:46.407Z,54.20
2022-10-14T11:32:19.551Z,54.50
2022-10-14T11:35:09.857Z,54.90
2022-10-14T11:37:42.672Z,54.80
2022-10-14T11:40:23.782Z,54.70
2022-10-14T11:43:19.973Z,54.50
2022-10-14T11:46:07.910Z,53.80
2022-10-14T11:48:51.230Z,54.00
2022-10-14T11:51:26.279Z,52.90
2022-10-14T11:54:11.279Z,51.80
2022-10-14T11:56:51.885Z,51.80
2022-10-14T12:00:15.070Z,52.00
2022-10-14T12:02:52.473Z,52.80
2022-10-14T12:05:41.029Z,53.10
2022-10-14T12:08:20.351Z,53.00
2022-10-14T12:10:49.806Z,53.00
2022-10-14T12:13:22.367Z,53.40
2022-10-14T12:15:51.809Z,53.60
2022-10-14T12:18:22.846Z,53.50
2022-10-14T12:21:12.497Z,52.70
2022-10-14T12:23:51.663Z,53.20
2022-10-14T12:26:21.613Z,53.60
2022-10-14T12:28:49.400Z,53.60
2022-10-14T12:31:23.715Z,53.50
2022-10-14T12:34:14.024Z,53.00
2022-10-14T12:36:46.207Z,52.50
2022-10-14T12:39:19.320Z,52.80
2022-10-14T12:41:59.486Z,51.60
2022-10-14T12:44:34.967Z,51.80
2022-10-14T12:47:04.716Z,52.40
2022-10-14T12:49:34.927Z,53.00
2022-10-14T12:52:08.796Z,52.90
2022-10-14T12:54:45.292Z,52.70
2022-10-14T12:57:27.855Z,52.60
2022-10-14T12:59:57.355Z,53.30
2022-10-14T13:02:35.252Z,53.50
2022-10-14T13:05:07.116Z,53.70
2022-10-14T13:07:46.414Z,52.90
2022-10-14T13:10:26.006Z,52.80
2022-10-14T13:12:53.243Z,53.90
2022-10-14T13:15:48.155Z,54.00
2022-10-14T13:18:44.306Z,54.10
2022-10-14T13:21:40.949Z,54.50
2022-10-14T13:24:07.859Z,54.60
2022-10-14T13:27:04.107Z,53.90
2022-10-14T13:29:34.088Z,53.40
2022-10-14T13:32:25.957Z,53.30
2022-10-14T13:35:08.644Z,53.50
2022-10-14T13:37:45.991Z,53.60
2022-10-14T13:40:20.488Z,52.70
2022-10-14T13:42:54.816Z,52.70
2022-10-14T13:45:55.919Z,53.10
2022-10-14T13:48:33.404Z,53.10
2022-10-14T13:51:24.568Z,52.10
2022-10-14T13:54:08.816Z,53.70
2022-10-14T13:56:35.784Z,54.10
2022-10-14T13:59:07.988Z,53.80
2022-10-14T14:01:44.086Z,53.90
2022-10-14T14:04:37.448Z,54.50
2022-10-14T14:07:27.783Z,55.10
2022-10-14T14:09:58.759Z,54.80
2022-10-14T14:12:25.857Z,54.70
2022-10-14T14:14:52.927Z,54.70
2022-10-14T14:17:23.403Z,54.70
2022-10-14T14:19:51.429Z,54.70
2022-10-14T14:22:27.098Z,54.40
2022-10-14T14:25:31.900Z,54.00
2022-10-14T14:28:01.949Z,54.20
2022-10-14T14:30:33.091Z,53.70
2022-10-14T14:33:08.158Z,53.70
2022-10-14T14:35:35.154Z,53.30
2022-10-14T14:38:02.510Z,53.30
2022-10-14T14:40:31.285Z,53.60
2022-10-14T14:43:01.107Z,53.70
2022-10-14T14:45:31.216Z,54.10
2022-10-14T14:48:03.160Z,54.00
2022-10-14T14:50:44.201Z,54.40
2022-10-14T14:53:29.550Z,54.50
2022-10-14T14:55:56.477Z,54.50
2022-10-14T14:58:34.689Z,55.10
2022-10-14T15:01:02.884Z,55.50
2022-10-14T15:03:34.614Z,55.90
2022-10-14T15:06:06.434Z,57.10
2022-10-14T15:08:39.111Z,56.60
2022-10-14T15:11:06.485Z,56.80
2022-10-14T15:13:39.586Z,56.50
2022-10-14T15:16:07.890Z,56.20
2022-10-14T15:18:37.607Z,56.30
2022-10-14T15:21:19.008Z,56.20
2022-10-14T15:23:49.115Z,56.30
2022-10-14T15:26:28.156Z,56.70
2022-10-14T15:29:14.633Z,56.80
2022-10-14T15:31:44.984Z,56.30
2022-10-14T15:34:18.480Z,56.60
2022-10-14T15:36:45.757Z,56.70
2022-10-14T15:39:13.907Z,56.90
2022-10-14T15:41:44.061Z,57.40
2022-10-14T15:44:11.549Z,57.00
2022-10-14T15:46:58.480Z,56.90
2022-10-14T15:49:36.559Z,57.20
2022-10-14T15:52:03.599Z,57.40
2022-10-14T15:54:30.617Z,57.70
2022-10-14T15:56:58.571Z,57.90
2022-10-14T15:59:26.301Z,57.50
2022-10-14T16:01:53.527Z,57.50
2022-10-14T16:04:24.752Z,57.60
2022-10-14T16:06:55.359Z,57.40
2022-10-14T16:09:23.777Z,57.40
2022-10-14T16:11:57.234Z,57.60
2022-10-14T16:14:27.726Z,57.90
2022-10-14T16:16:55.207Z,58.10
2022-10-14T16:19:22.420Z,58.40
2022-10-14T16:21:50.044Z,58.70
2022-10-14T16:24:20.570Z,59.00
2022-10-14T16:26:51.598Z,59.10
2022-10-14T16:29:20.278Z,59.40
2022-10-14T16:31:49.780Z,59.70
2022-10-14T16:34:22.360Z,59.90
2022-10-14T16:36:50.576Z,60.10
2022-10-14T16:39:19.183Z,60.30
2022-10-14T16:41:46.742Z,60.50
2022-10-14T16:44:24.816Z,60.60
2022-10-14T16:47:15.417Z,60.80
2022-10-14T16:49:45.641Z,60.80
2022-10-14T16:52:13.429Z,60.80
2022-10-14T16:54:40.731Z,61.00
2022-10-14T16:57:08.712Z,61.20
2022-10-14T16:59:35.971Z,61.70
2022-10-14T17:02:03.832Z,62.30
2022-10-14T17:04:30.916Z,62.60
2022-10-14T17:06:58.484Z,62.70
2022-10-14T17:12:01.519Z,62.90
2022-10-14T17:14:31.196Z,63.10
2022-10-14T17:16:59.759Z,63.60
2022-10-14T17:19:27.224Z,63.70
2022-10-14T17:21:54.313Z,63.80
2022-10-14T17:24:22.104Z,63.90
2022-10-14T17:26:49.144Z,64.00
2022-10-14T17:29:16.187Z,64.10
2022-10-14T17:31:45.494Z,64.30
2022-10-14T17:34:12.632Z,64.40
2022-10-14T17:36:41.545Z,64.60
2022-10-14T17:39:16.465Z,64.80
2022-10-14T17:41:48.377Z,65.10
2022-10-14T17:44:15.347Z,65.30
2022-10-14T17:46:42.417Z,65.70
2022-10-14T17:49:10.045Z,66.00
2022-10-14T17:51:38.194Z,66.30
2022-10-14T17:54:07.486Z,66.60
2022-10-14T17:56:36.814Z,66.50
2022-10-14T17:59:10.462Z,66.70
2022-10-14T18:02:00.949Z,67.00
2022-10-14T18:04:24.501Z,67.00
2022-10-14T18:06:52.684Z,67.10
2022-10-14T18:09:19.751Z,67.30
2022-10-14T18:12:07.742Z,67.60
2022-10-14T18:14:35.928Z,67.60
2022-10-14T18:17:02.927Z,67.70
2022-10-14T18:19:29.887Z,68.00
2022-10-14T18:21:57.124Z,68.10
2022-10-14T18:24:24.496Z,68.40
2022-10-14T18:26:52.392Z,68.70
2022-10-14T18:29:19.559Z,69.10
2022-10-14T18:31:48.294Z,69.40
2022-10-14T18:34:15.283Z,69.80
2022-10-14T18:36:42.708Z,70.10
2022-10-14T18:39:12.390Z,70.30
2022-10-14T18:41:39.723Z,70.40
2022-10-14T18:44:07.177Z,70.30
2022-10-14T18:46:36.327Z,70.30
2022-10-14T18:49:04.667Z,70.50
2022-10-14T18:51:35.094Z,70.70
2022-10-14T18:54:07.875Z,71.10
2022-10-14T18:56:38.796Z,72.00
2022-10-14T18:59:09.533Z,71.50
2022-10-14T19:01:37.868Z,71.70
2022-10-14T19:04:06.816Z,71.90
2022-10-14T19:06:34.787Z,72.00
2022-10-14T19:09:02.030Z,72.10
2022-10-14T19:11:30.423Z,72.10
2022-10-14T19:13:59.032Z,72.20
2022-10-14T19:16:31.805Z,72.30
2022-10-14T19:19:01.361Z,72.40
2022-10-14T19:21:31.288Z,72.40
2022-10-14T19:23:59.525Z,72.30
2022-10-14T19:26:31.074Z,72.20
2022-10-14T19:28:59.650Z,72.10
2022-10-14T19:31:29.984Z,72.10
2022-10-14T19:33:59.708Z,72.30
2022-10-14T19:36:26.982Z,72.30
2022-10-14T19:38:57.960Z,72.10
2022-10-14T19:41:30.505Z,71.90
2022-10-14T19:43:59.094Z,71.90
2022-10-14T19:46:28.258Z,71.90
2022-10-14T19:48:57.331Z,72.20
2022-10-14T19:51:25.115Z,72.30
2022-10-14T19:53:53.799Z,72.50
2022-10-14T19:56:20.857Z,72.50
2022-10-14T19:58:53.001Z,72.50
2022-10-14T20:01:23.512Z,72.50
2022-10-14T20:03:51.778Z,72.50
2022-10-14T20:06:20.147Z,72.50
2022-10-14T20:08:47.187Z,72.60
2022-10-14T20:11:16.899Z,72.70
2022-10-14T20:13:45.006Z,72.90
2022-10-14T20:16:13.220Z,73.20
2022-10-14T20:18:40.524Z,73.30
2022-10-14T20:21:08.809Z,73.30
2022-10-14T20:23:38.308Z,73.40
2022-10-14T20:26:07.971Z,73.50
2022-10-14T20:28:36.202Z,73.70
2022-10-14T20:31:10.662Z,73.90
2022-10-14T20:33:38.043Z,74.80
2022-10-14T20:36:15.208Z,74.20
2022-10-14T20:38:43.658Z,74.40
2022-10-14T20:41:22.621Z,74.50
2022-10-14T20:43:50.244Z,74.80
2022-10-14T20:46:18.074Z,74.90
2022-10-14T20:48:46.565Z,75.00
2022-10-14T20:51:17.911Z,74.90
2022-10-14T20:53:45.019Z,74.90
2022-10-14T20:56:13.539Z,75.10
2022-10-14T20:58:40.806Z,75.30
2022-10-14T21:01:13.762Z,75.50
2022-10-14T21:03:42.639Z,75.80
2022-10-14T21:06:13.077Z,75.90
2022-10-14T21:08:40.408Z,76.10
2022-10-14T21:11:13.761Z,76.30
2022-10-14T21:13:53.436Z,76.50
2022-10-14T21:16:26.513Z,76.60
2022-10-14T21:19:07.891Z,76.80
2022-10-14T21:21:38.036Z,77.00
2022-10-14T21:24:05.931Z,77.10
2022-10-14T21:26:33.113Z,77.20
2022-10-14T21:29:02.562Z,77.40
2022-10-14T21:31:30.398Z,77.50
2022-10-14T21:34:05.122Z,77.50
2022-10-14T21:36:34.171Z,77.50
2022-10-14T21:39:04.467Z,77.80
2022-10-14T21:41:31.614Z,77.70
2022-10-14T21:43:59.399Z,78.00
2022-10-14T21:46:27.016Z,78.30
2022-10-14T21:48:58.815Z,78.50
2022-10-14T21:51:30.294Z,78.70
2022-10-14T21:53:57.967Z,79.00
2022-10-14T21:56:25.955Z,79.20
2022-10-14T21:58:53.722Z,79.60
2022-10-14T22:01:29.092Z,79.60
2022-10-14T22:04:00.294Z,79.60
2022-10-14T22:06:28.231Z,79.60
2022-10-14T22:08:57.828Z,79.30
2022-10-14T22:11:30.778Z,79.30
2022-10-14T22:14:00.357Z,79.50
2022-10-14T22:16:29.206Z,79.80
2022-10-14T22:18:59.211Z,80.00
2022-10-14T22:21:27.861Z,80.20
2022-10-14T22:23:54.941Z,80.20
2022-10-14T22:26:24.289Z,80.00
2022-10-14T22:29:15.677Z,80.10
2022-10-14T22:31:43.647Z,80.50
2022-10-14T22:34:13.132Z,80.60
2022-10-14T22:36:40.720Z,80.70
2022-10-14T22:39:13.385Z,80.70
2022-10-14T22:41:40.373Z,80.30
2022-10-14T22:44:08.498Z,80.00
2022-10-14T22:46:37.741Z,79.90
2022-10-14T22:49:05.131Z,80.20
2022-10-14T22:51:35.036Z,80.50
2022-10-14T22:54:02.636Z,80.80
2022-10-14T22:56:31.561Z,81.10
2022-10-14T22:59:00.763Z,81.20
2022-10-14T23:01:28.102Z,81.50
2022-10-14T23:03:56.976Z,81.70
2022-10-14T23:06:24.516Z,81.90
2022-10-14T23:08:51.500Z,81.70
2022-10-14T23:11:20.812Z,81.40
2022-10-14T23:13:48.253Z,81.20
2022-10-14T23:16:18.183Z,81.20
2022-10-14T23:18:46.490Z,81.10
2022-10-14T23:21:23.223Z,81.20
2022-10-14T23:23:51.430Z,81.20
2022-10-14T23:26:22.416Z,81.40
2022-10-14T23:28:55.087Z,81.90
2022-10-14T23:31:28.430Z,82.40
2022-10-14T23:33:57.616Z,82.60
2022-10-14T23:36:24.623Z,82.80
2022-10-14T23:38:55.339Z,82.80
2022-10-14T23:41:23.169Z,83.00
2022-10-14T23:43:51.591Z,83.00
2022-10-14T23:46:19.591Z,83.10
2022-10-14T23:48:55.418Z,83.10
2022-10-14T23:51:33.515Z,83.10
2022-10-14T23:54:00.474Z,82.80
2022-10-14T23:56:27.481Z,82.90
2022-10-14T23:58:54.396Z,83.00
